sensor_id;sensor_type;location;lat;lon;timestamp;pressure;altitude;pressure_sealevel;temperature;humidity
32083;BME280;18597;48.328;7.932;2022-11-15T00:00:55;99293.66;;;7.70;100.00
32083;BME280;18597;48.328;7.932;2022-11-15T00:03:24;99292.59;;;7.72;100.00
32083;BME280;18597;48.328;7.932;2022-11-15T00:05:51;99290.91;;;7.83;100.00
32083;BME280;18597;48.328;7.932;2022-11-15T00:08:17;99290.53;;;7.87;100.00
32083;BME280;18597;48.328;7.932;2022-11-15T00:10:56;99283.19;;;7.79;100.00
32083;BME280;18597;48.328;7.932;2022-11-15T00:13:23;99286.53;;;7.93;100.00
32083;BME280;18597;48.328;7.932;2022-11-15T00:15:49;99286.16;;;8.09;100.00
32083;BME280;18597;48.328;7.932;2022-11-15T00:18:16;99286.66;;;8.02;100.00
32083;BME280;18597;48.328;7.932;2022-11-15T00:20:43;99286.38;;;8.05;100.00
32083;BME280;18597;48.328;7.932;2022-11-15T00:23:09;99285.19;;;8.10;100.00
32083;BME280;18597;48.328;7.932;2022-11-15T00:25:35;99279.13;;;8.19;100.00
32083;BME280;18597;48.328;7.932;2022-11-15T00:28:01;99278.16;;;8.20;100.00
32083;BME280;18597;48.328;7.932;2022-11-15T00:30:28;99272.06;;;8.29;100.00
32083;BME280;18597;48.328;7.932;2022-11-15T00:32:55;99274.50;;;8.21;100.00
32083;BME280;18597;48.328;7.932;2022-11-15T00:35:21;99259.72;;;8.28;100.00
32083;BME280;18597;48.328;7.932;2022-11-15T00:37:47;99259.25;;;8.23;100.00
32083;BME280;18597;48.328;7.932;2022-11-15T00:40:14;99268.22;;;8.22;100.00
32083;BME280;18597;48.328;7.932;2022-11-15T00:42:40;99262.09;;;8.10;100.00
32083;BME280;18597;48.328;7.932;2022-11-15T00:45:07;99256.72;;;8.21;100.00
32083;BME280;18597;48.328;7.932;2022-11-15T00:47:33;99266.53;;;8.21;100.00
32083;BME280;18597;48.328;7.932;2022-11-15T00:49:59;99248.72;;;8.32;100.00
32083;BME280;18597;48.328;7.932;2022-11-15T00:52:25;99246.16;;;8.42;100.00
32083;BME280;18597;48.328;7.932;2022-11-15T00:54:51;99241.41;;;8.46;100.00
32083;BME280;18597;48.328;7.932;2022-11-15T00:57:17;99242.53;;;8.43;100.00
32083;BME280;18597;48.328;7.932;2022-11-15T00:59:44;99233.91;;;8.51;100.00
32083;BME280;18597;48.328;7.932;2022-11-15T01:02:10;99233.34;;;8.47;100.00
32083;BME280;18597;48.328;7.932;2022-11-15T01:04:36;99229.19;;;8.54;100.00
32083;BME280;18597;48.328;7.932;2022-11-15T01:07:02;99224.09;;;8.51;100.00
32083;BME280;18597;48.328;7.932;2022-11-15T01:09:28;99225.59;;;8.44;100.00
32083;BME280;18597;48.328;7.932;2022-11-15T01:11:54;99226.69;;;8.42;100.00
32083;BME280;18597;48.328;7.932;2022-11-15T01:14:20;99220.72;;;8.49;100.00
32083;BME280;18597;48.328;7.932;2022-11-15T01:16:46;99221.22;;;8.43;100.00
32083;BME280;18597;48.328;7.932;2022-11-15T01:19:12;99217.81;;;8.52;100.00
32083;BME280;18597;48.328;7.932;2022-11-15T01:21:38;99226.13;;;8.59;100.00
32083;BME280;18597;48.328;7.932;2022-11-15T01:24:04;99217.50;;;8.67;100.00
32083;BME280;18597;48.328;7.932;2022-11-15T01:26:30;99214.78;;;8.78;100.00
32083;BME280;18597;48.328;7.932;2022-11-15T01:28:56;99220.22;;;8.76;100.00
32083;BME280;18597;48.328;7.932;2022-11-15T01:31:22;99209.84;;;8.94;100.00
32083;BME280;18597;48.328;7.932;2022-11-15T01:33:49;99209.84;;;8.94;100.00
32083;BME280;18597;48.328;7.932;2022-11-15T01:36:20;99207.41;;;8.91;100.00
32083;BME280;18597;48.328;7.932;2022-11-15T01:38:54;99205.72;;;9.11;100.00
32083;BME280;18597;48.328;7.932;2022-11-15T01:41:25;99207.75;;;9.28;100.00
32083;BME280;18597;48.328;7.932;2022-11-15T01:43:55;99206.97;;;9.37;100.00
32083;BME280;18597;48.328;7.932;2022-11-15T01:46:30;99201.94;;;9.44;100.00
32083;BME280;18597;48.328;7.932;2022-11-15T01:49:05;99203.09;;;9.51;100.00
32083;BME280;18597;48.328;7.932;2022-11-15T01:51:36;99200.00;;;9.46;100.00
32083;BME280;18597;48.328;7.932;2022-11-15T01:54:08;99204.19;;;9.39;100.00
32083;BME280;18597;48.328;7.932;2022-11-15T01:56:45;99195.16;;;9.30;100.00
32083;BME280;18597;48.328;7.932;2022-11-15T01:59:13;99202.59;;;9.36;100.00
32083;BME280;18597;48.328;7.932;2022-11-15T02:01:39;99199.19;;;9.55;100.00
32083;BME280;18597;48.328;7.932;2022-11-15T02:04:13;99195.13;;;9.61;100.00
32083;BME280;18597;48.328;7.932;2022-11-15T02:06:42;99192.31;;;9.62;100.00
32083;BME280;18597;48.328;7.932;2022-11-15T02:09:09;99193.19;;;9.72;100.00
32083;BME280;18597;48.328;7.932;2022-11-15T02:11:37;99184.72;;;9.58;100.00
32083;BME280;18597;48.328;7.932;2022-11-15T02:14:03;99177.84;;;9.55;100.00
32083;BME280;18597;48.328;7.932;2022-11-15T02:20:23;99174.97;;;9.78;100.00
32083;BME280;18597;48.328;7.932;2022-11-15T02:29:13;99172.88;;;9.91;100.00
32083;BME280;18597;48.328;7.932;2022-11-15T02:32:11;99167.16;;;10.05;100.00
32083;BME280;18597;48.328;7.932;2022-11-15T02:34:55;99158.28;;;10.14;100.00
32083;BME280;18597;48.328;7.932;2022-11-15T02:37:56;99150.44;;;10.32;100.00
32083;BME280;18597;48.328;7.932;2022-11-15T02:43:26;99150.72;;;10.39;100.00
32083;BME280;18597;48.328;7.932;2022-11-15T02:46:38;99144.97;;;10.34;100.00
32083;BME280;18597;48.328;7.932;2022-11-15T02:49:28;99144.81;;;10.16;100.00
32083;BME280;18597;48.328;7.932;2022-11-15T02:51:56;99138.47;;;10.07;100.00
32083;BME280;18597;48.328;7.932;2022-11-15T02:54:26;99142.53;;;10.01;100.00
32083;BME280;18597;48.328;7.932;2022-11-15T02:57:02;99138.03;;;10.12;100.00
32083;BME280;18597;48.328;7.932;2022-11-15T03:00:07;99139.16;;;9.90;100.00
32083;BME280;18597;48.328;7.932;2022-11-15T03:11:13;99134.69;;;10.00;100.00
32083;BME280;18597;48.328;7.932;2022-11-15T03:14:18;99132.16;;;9.98;100.00
32083;BME280;18597;48.328;7.932;2022-11-15T03:19:46;99141.41;;;10.04;100.00
32083;BME280;18597;48.328;7.932;2022-11-15T03:22:21;99141.72;;;10.01;100.00
32083;BME280;18597;48.328;7.932;2022-11-15T03:24:54;99139.47;;;10.06;100.00
32083;BME280;18597;48.328;7.932;2022-11-15T03:27:24;99142.00;;;9.98;100.00
32083;BME280;18597;48.328;7.932;2022-11-15T03:29:58;99131.44;;;9.87;100.00
32083;BME280;18597;48.328;7.932;2022-11-15T03:32:30;99135.53;;;9.91;100.00
32083;BME280;18597;48.328;7.932;2022-11-15T03:35:09;99135.53;;;9.91;100.00
32083;BME280;18597;48.328;7.932;2022-11-15T03:38:05;99136.91;;;9.95;100.00
32083;BME280;18597;48.328;7.932;2022-11-15T03:40:44;99142.25;;;10.05;100.00
32083;BME280;18597;48.328;7.932;2022-11-15T03:43:39;99136.38;;;10.01;100.00
32083;BME280;18597;48.328;7.932;2022-11-15T03:46:14;99141.56;;;10.12;100.00
32083;BME280;18597;48.328;7.932;2022-11-15T03:48:51;99135.25;;;10.13;100.00
32083;BME280;18597;48.328;7.932;2022-11-15T03:51:18;99143.97;;;10.15;100.00
32083;BME280;18597;48.328;7.932;2022-11-15T03:53:45;99142.28;;;10.14;100.00
32083;BME280;18597;48.328;7.932;2022-11-15T03:56:11;99131.31;;;10.17;100.00
32083;BME280;18597;48.328;7.932;2022-11-15T03:58:38;99128.22;;;10.12;100.00
32083;BME280;18597;48.328;7.932;2022-11-15T04:01:04;99124.59;;;10.23;100.00
32083;BME280;18597;48.328;7.932;2022-11-15T04:03:30;99127.97;;;10.25;100.00
32083;BME280;18597;48.328;7.932;2022-11-15T04:05:56;99125.16;;;10.26;100.00
32083;BME280;18597;48.328;7.932;2022-11-15T04:08:22;99124.47;;;10.24;100.00
32083;BME280;18597;48.328;7.932;2022-11-15T04:10:49;99118.69;;;10.39;100.00
32083;BME280;18597;48.328;7.932;2022-11-15T04:13:15;99122.06;;;10.31;100.00
32083;BME280;18597;48.328;7.932;2022-11-15T04:15:41;99119.38;;;10.41;100.00
32083;BME280;18597;48.328;7.932;2022-11-15T04:18:07;99117.44;;;10.23;100.00
32083;BME280;18597;48.328;7.932;2022-11-15T04:20:33;99117.41;;;10.33;100.00
32083;BME280;18597;48.328;7.932;2022-11-15T04:23:22;99109.28;;;10.25;100.00
32083;BME280;18597;48.328;7.932;2022-11-15T04:26:14;99107.13;;;10.19;100.00
32083;BME280;18597;48.328;7.932;2022-11-15T04:28:42;99108.03;;;10.29;100.00
32083;BME280;18597;48.328;7.932;2022-11-15T04:31:28;99107.31;;;10.37;100.00
32083;BME280;18597;48.328;7.932;2022-11-15T04:33:54;99111.66;;;10.38;100.00
32083;BME280;18597;48.328;7.932;2022-11-15T04:36:21;99101.00;;;10.38;100.00
32083;BME280;18597;48.328;7.932;2022-11-15T04:39:07;99112.47;;;10.48;100.00
32083;BME280;18597;48.328;7.932;2022-11-15T04:41:33;99099.44;;;10.35;100.00
32083;BME280;18597;48.328;7.932;2022-11-15T04:43:59;99102.94;;;10.45;100.00
32083;BME280;18597;48.328;7.932;2022-11-15T04:46:25;99098.00;;;10.41;100.00
32083;BME280;18597;48.328;7.932;2022-11-15T04:48:52;99096.19;;;10.51;100.00
32083;BME280;18597;48.328;7.932;2022-11-15T04:51:19;99096.03;;;10.52;100.00
32083;BME280;18597;48.328;7.932;2022-11-15T04:53:46;99098.38;;;10.65;100.00
32083;BME280;18597;48.328;7.932;2022-11-15T04:56:12;99102.50;;;10.50;100.00
32083;BME280;18597;48.328;7.932;2022-11-15T04:58:38;99095.47;;;10.59;100.00
32083;BME280;18597;48.328;7.932;2022-11-15T05:01:09;99102.31;;;10.71;100.00
32083;BME280;18597;48.328;7.932;2022-11-15T05:03:35;99097.53;;;10.65;100.00
32083;BME280;18597;48.328;7.932;2022-11-15T05:06:21;99094.88;;;10.65;100.00
32083;BME280;18597;48.328;7.932;2022-11-15T05:08:46;99093.91;;;10.56;100.00
32083;BME280;18597;48.328;7.932;2022-11-15T05:11:12;99098.97;;;10.59;100.00
32083;BME280;18597;48.328;7.932;2022-11-15T05:13:38;99095.78;;;10.46;100.00
32083;BME280;18597;48.328;7.932;2022-11-15T05:16:04;99105.16;;;10.50;100.00
32083;BME280;18597;48.328;7.932;2022-11-15T05:18:31;99095.31;;;10.60;100.00
32083;BME280;18597;48.328;7.932;2022-11-15T05:21:04;99099.09;;;10.57;100.00
32083;BME280;18597;48.328;7.932;2022-11-15T05:23:30;99097.56;;;10.55;100.00
32083;BME280;18597;48.328;7.932;2022-11-15T05:26:00;99089.56;;;10.55;100.00
32083;BME280;18597;48.328;7.932;2022-11-15T05:28:26;99090.97;;;10.59;100.00
32083;BME280;18597;48.328;7.932;2022-11-15T05:30:52;99090.78;;;10.70;100.00
32083;BME280;18597;48.328;7.932;2022-11-15T05:33:19;99089.53;;;10.74;100.00
32083;BME280;18597;48.328;7.932;2022-11-15T05:35:54;99093.28;;;10.81;100.00
32083;BME280;18597;48.328;7.932;2022-11-15T05:38:20;99075.69;;;10.89;100.00
32083;BME280;18597;48.328;7.932;2022-11-15T05:40:46;99077.66;;;10.87;100.00
32083;BME280;18597;48.328;7.932;2022-11-15T05:43:12;99079.53;;;10.76;100.00
32083;BME280;18597;48.328;7.932;2022-11-15T05:45:38;99073.84;;;10.89;100.00
32083;BME280;18597;48.328;7.932;2022-11-15T05:48:06;99073.97;;;10.88;100.00
32083;BME280;18597;48.328;7.932;2022-11-15T05:50:34;99079.47;;;10.86;100.00
32083;BME280;18597;48.328;7.932;2022-11-15T05:53:02;99075.72;;;10.79;100.00
32083;BME280;18597;48.328;7.932;2022-11-15T05:55:28;99074.19;;;10.76;100.00
32083;BME280;18597;48.328;7.932;2022-11-15T05:57:54;99082.34;;;10.65;100.00
32083;BME280;18597;48.328;7.932;2022-11-15T06:00:20;99081.81;;;10.62;100.00
32083;BME280;18597;48.328;7.932;2022-11-15T06:02:46;99086.00;;;10.64;100.00
32083;BME280;18597;48.328;7.932;2022-11-15T06:05:12;99074.88;;;10.78;100.00
32083;BME280;18597;48.328;7.932;2022-11-15T06:07:37;99077.94;;;10.83;100.00
32083;BME280;18597;48.328;7.932;2022-11-15T06:10:05;99068.69;;;10.78;100.00
32083;BME280;18597;48.328;7.932;2022-11-15T06:12:30;99076.16;;;10.74;100.00
32083;BME280;18597;48.328;7.932;2022-11-15T06:14:56;99075.16;;;10.75;100.00
32083;BME280;18597;48.328;7.932;2022-11-15T06:17:22;99071.81;;;10.64;100.00
32083;BME280;18597;48.328;7.932;2022-11-15T06:19:48;99073.66;;;10.63;100.00
32083;BME280;18597;48.328;7.932;2022-11-15T06:22:14;99076.44;;;10.71;100.00
32083;BME280;18597;48.328;7.932;2022-11-15T06:24:40;99064.25;;;10.59;100.00
32083;BME280;18597;48.328;7.932;2022-11-15T06:27:05;99074.88;;;10.78;100.00
32083;BME280;18597;48.328;7.932;2022-11-15T06:29:31;99067.44;;;10.72;100.00
32083;BME280;18597;48.328;7.932;2022-11-15T06:31:57;99070.56;;;10.68;100.00
32083;BME280;18597;48.328;7.932;2022-11-15T06:34:23;99065.28;;;10.86;100.00
32083;BME280;18597;48.328;7.932;2022-11-15T06:36:49;99058.16;;;10.76;100.00
32083;BME280;18597;48.328;7.932;2022-11-15T06:39:14;99064.03;;;10.80;100.00
32083;BME280;18597;48.328;7.932;2022-11-15T06:41:40;99062.81;;;10.65;100.00
32083;BME280;18597;48.328;7.932;2022-11-15T06:44:06;99078.72;;;10.66;100.00
32083;BME280;18597;48.328;7.932;2022-11-15T06:46:32;99068.03;;;10.66;100.00
32083;BME280;18597;48.328;7.932;2022-11-15T06:48:58;99074.72;;;10.80;100.00
32083;BME280;18597;48.328;7.932;2022-11-15T06:51:23;99078.13;;;10.72;100.00
32083;BME280;18597;48.328;7.932;2022-11-15T06:53:49;99079.81;;;10.73;100.00
32083;BME280;18597;48.328;7.932;2022-11-15T06:56:15;99073.13;;;10.97;100.00
32083;BME280;18597;48.328;7.932;2022-11-15T06:58:41;99066.22;;;10.94;100.00
32083;BME280;18597;48.328;7.932;2022-11-15T07:01:10;99069.81;;;11.13;100.00
32083;BME280;18597;48.328;7.932;2022-11-15T07:03:39;99073.75;;;11.08;100.00
32083;BME280;18597;48.328;7.932;2022-11-15T07:06:06;99071.47;;;10.86;100.00
32083;BME280;18597;48.328;7.932;2022-11-15T07:08:33;99073.59;;;10.82;100.00
32083;BME280;18597;48.328;7.932;2022-11-15T07:11:02;99077.00;;;10.65;100.00
32083;BME280;18597;48.328;7.932;2022-11-15T07:13:30;99079.28;;;10.60;100.00
32083;BME280;18597;48.328;7.932;2022-11-15T07:16:09;99077.34;;;10.52;100.00
32083;BME280;18597;48.328;7.932;2022-11-15T07:18:38;99085.78;;;10.48;100.00
32083;BME280;18597;48.328;7.932;2022-11-15T07:21:06;99078.75;;;10.47;100.00
32083;BME280;18597;48.328;7.932;2022-11-15T07:23:36;99086.44;;;10.69;100.00
32083;BME280;18597;48.328;7.932;2022-11-15T07:26:02;99074.75;;;10.70;100.00
32083;BME280;18597;48.328;7.932;2022-11-15T07:28:28;99075.56;;;10.80;100.00
32083;BME280;18597;48.328;7.932;2022-11-15T07:30:54;99076.84;;;10.76;100.00
32083;BME280;18597;48.328;7.932;2022-11-15T07:33:20;99069.34;;;10.90;100.00
32083;BME280;18597;48.328;7.932;2022-11-15T07:35:46;99068.78;;;10.86;100.00
32083;BME280;18597;48.328;7.932;2022-11-15T07:38:16;99071.88;;;10.91;100.00
32083;BME280;18597;48.328;7.932;2022-11-15T07:40:46;99067.56;;;11.08;100.00
32083;BME280;18597;48.328;7.932;2022-11-15T07:43:12;99066.31;;;11.12;100.00
32083;BME280;18597;48.328;7.932;2022-11-15T07:45:45;99059.81;;;11.15;100.00
32083;BME280;18597;48.328;7.932;2022-11-15T07:48:11;99073.84;;;11.17;100.00
32083;BME280;18597;48.328;7.932;2022-11-15T07:50:40;99064.72;;;11.19;100.00
32083;BME280;18597;48.328;7.932;2022-11-15T07:53:08;99062.25;;;11.26;100.00
32083;BME280;18597;48.328;7.932;2022-11-15T07:55:35;99060.41;;;11.36;100.00
32083;BME280;18597;48.328;7.932;2022-11-15T07:58:05;99060.75;;;11.23;100.00
32083;BME280;18597;48.328;7.932;2022-11-15T08:00:32;99054.25;;;11.26;100.00
32083;BME280;18597;48.328;7.932;2022-11-15T08:03:10;99054.72;;;11.21;100.00
32083;BME280;18597;48.328;7.932;2022-11-15T08:05:38;99060.59;;;11.25;100.00
32083;BME280;18597;48.328;7.932;2022-11-15T08:08:05;99056.03;;;11.35;100.00
32083;BME280;18597;48.328;7.932;2022-11-15T08:10:31;99051.44;;;11.27;100.00
32083;BME280;18597;48.328;7.932;2022-11-15T08:13:01;99053.81;;;11.30;100.00
32083;BME280;18597;48.328;7.932;2022-11-15T08:15:28;99053.56;;;11.24;100.00
32083;BME280;18597;48.328;7.932;2022-11-15T08:18:01;99046.94;;;11.28;100.00
32083;BME280;18597;48.328;7.932;2022-11-15T08:20:29;99044.69;;;11.23;100.00
32083;BME280;18597;48.328;7.932;2022-11-15T08:22:57;99044.25;;;11.28;100.00
32083;BME280;18597;48.328;7.932;2022-11-15T08:25:24;99039.06;;;11.26;100.00
32083;BME280;18597;48.328;7.932;2022-11-15T08:27:54;99039.19;;;11.25;100.00
32083;BME280;18597;48.328;7.932;2022-11-15T08:30:21;99037.31;;;11.35;100.00
32083;BME280;18597;48.328;7.932;2022-11-15T08:32:48;99044.84;;;11.49;100.00
32083;BME280;18597;48.328;7.932;2022-11-15T08:35:14;99042.00;;;11.51;100.00
32083;BME280;18597;48.328;7.932;2022-11-15T08:37:40;99038.31;;;11.70;100.00
32083;BME280;18597;48.328;7.932;2022-11-15T08:40:07;99037.31;;;11.80;100.00
32083;BME280;18597;48.328;7.932;2022-11-15T08:42:33;99049.53;;;11.83;100.00
32083;BME280;18597;48.328;7.932;2022-11-15T08:44:59;99045.25;;;11.90;100.00
32083;BME280;18597;48.328;7.932;2022-11-15T08:47:25;99040.81;;;11.99;100.00
32083;BME280;18597;48.328;7.932;2022-11-15T08:49:51;99038.03;;;12.08;100.00
32083;BME280;18597;48.328;7.932;2022-11-15T08:52:16;99036.56;;;12.14;100.00
32083;BME280;18597;48.328;7.932;2022-11-15T08:54:42;99038.25;;;12.15;100.00
32083;BME280;18597;48.328;7.932;2022-11-15T08:57:08;99034.44;;;12.17;100.00
32083;BME280;18597;48.328;7.932;2022-11-15T08:59:36;99023.41;;;12.20;100.00
32083;BME280;18597;48.328;7.932;2022-11-15T09:02:02;99025.63;;;12.25;100.00
32083;BME280;18597;48.328;7.932;2022-11-15T09:04:28;99029.81;;;12.28;100.00
32083;BME280;18597;48.328;7.932;2022-11-15T09:06:54;99026.69;;;12.32;100.00
32083;BME280;18597;48.328;7.932;2022-11-15T09:09:20;99027.41;;;12.42;100.00
32083;BME280;18597;48.328;7.932;2022-11-15T09:11:46;99031.94;;;12.42;100.00
32083;BME280;18597;48.328;7.932;2022-11-15T09:14:13;99035.13;;;12.45;100.00
32083;BME280;18597;48.328;7.932;2022-11-15T09:16:39;99035.81;;;12.47;100.00
32083;BME280;18597;48.328;7.932;2022-11-15T09:19:06;99039.69;;;12.53;100.00
32083;BME280;18597;48.328;7.932;2022-11-15T09:21:32;99044.91;;;12.55;100.00
32083;BME280;18597;48.328;7.932;2022-11-15T09:23:58;99044.22;;;12.53;100.00
32083;BME280;18597;48.328;7.932;2022-11-15T09:26:24;99049.63;;;12.61;100.00
32083;BME280;18597;48.328;7.932;2022-11-15T09:28:50;99049.66;;;12.69;100.00
32083;BME280;18597;48.328;7.932;2022-11-15T09:31:16;99045.31;;;12.68;100.00
32083;BME280;18597;48.328;7.932;2022-11-15T09:33:44;99046.53;;;12.73;100.00
32083;BME280;18597;48.328;7.932;2022-11-15T09:36:10;99052.56;;;12.49;100.00
32083;BME280;18597;48.328;7.932;2022-11-15T09:38:36;99055.25;;;12.49;100.00
32083;BME280;18597;48.328;7.932;2022-11-15T09:41:34;99057.56;;;12.44;100.00
32083;BME280;18597;48.328;7.932;2022-11-15T09:44:42;99050.66;;;12.68;100.00
32083;BME280;18597;48.328;7.932;2022-11-15T09:50:48;99043.47;;;13.02;100.00
32083;BME280;18597;48.328;7.932;2022-11-15T09:53:49;99035.75;;;13.33;100.00
32083;BME280;18597;48.328;7.932;2022-11-15T09:56:22;99040.16;;;13.59;100.00
32083;BME280;18597;48.328;7.932;2022-11-15T09:59:35;99023.94;;;13.77;100.00
32083;BME280;18597;48.328;7.932;2022-11-15T10:05:22;99023.09;;;14.09;100.00
32083;BME280;18597;48.328;7.932;2022-11-15T10:08:27;99024.94;;;14.16;100.00
32083;BME280;18597;48.328;7.932;2022-11-15T10:11:00;99016.88;;;14.25;100.00
32083;BME280;18597;48.328;7.932;2022-11-15T10:13:33;99018.88;;;14.31;100.00
32083;BME280;18597;48.328;7.932;2022-11-15T10:16:37;99019.88;;;14.38;100.00
32083;BME280;18597;48.328;7.932;2022-11-15T10:25:29;99010.13;;;14.45;100.00
32083;BME280;18597;48.328;7.932;2022-11-15T10:28:31;99001.41;;;14.51;100.00
32083;BME280;18597;48.328;7.932;2022-11-15T10:30:59;99000.56;;;14.59;100.00
32083;BME280;18597;48.328;7.932;2022-11-15T10:33:38;98982.69;;;14.66;100.00
32083;BME280;18597;48.328;7.932;2022-11-15T10:36:22;98971.13;;;14.65;100.00
32083;BME280;18597;48.328;7.932;2022-11-15T10:41:31;98950.69;;;14.87;100.00
32083;BME280;18597;48.328;7.932;2022-11-15T10:46:45;98942.53;;;15.04;100.00
32083;BME280;18597;48.328;7.932;2022-11-15T10:49:22;98941.38;;;15.06;100.00
32083;BME280;18597;48.328;7.932;2022-11-15T10:54:44;98919.31;;;15.11;100.00
32083;BME280;18597;48.328;7.932;2022-11-15T10:57:15;98925.84;;;15.16;100.00
32083;BME280;18597;48.328;7.932;2022-11-15T10:59:47;98922.44;;;15.22;100.00
32083;BME280;18597;48.328;7.932;2022-11-15T11:02:40;98923.81;;;14.87;100.00
32083;BME280;18597;48.328;7.932;2022-11-15T11:05:34;98917.94;;;14.53;100.00
32083;BME280;18597;48.328;7.932;2022-11-15T11:10:56;98905.28;;;14.61;100.00
32083;BME280;18597;48.328;7.932;2022-11-15T11:13:31;98894.69;;;14.68;100.00
32083;BME280;18597;48.328;7.932;2022-11-15T11:16:26;98902.56;;;14.69;100.00
32083;BME280;18597;48.328;7.932;2022-11-15T11:19:37;98898.16;;;14.77;100.00
32083;BME280;18597;48.328;7.932;2022-11-15T11:28:39;98887.97;;;15.18;100.00
32083;BME280;18597;48.328;7.932;2022-11-15T11:31:24;98879.25;;;15.16;100.00
32083;BME280;18597;48.328;7.932;2022-11-15T11:40:35;98871.69;;;15.19;100.00
32083;BME280;18597;48.328;7.932;2022-11-15T11:43:28;98872.03;;;15.16;100.00
32083;BME280;18597;48.328;7.932;2022-11-15T11:48:45;98865.22;;;15.29;100.00
32083;BME280;18597;48.328;7.932;2022-11-15T11:51:20;98864.25;;;14.98;100.00
32083;BME280;18597;48.328;7.932;2022-11-15T11:56:32;98853.00;;;14.95;100.00
32083;BME280;18597;48.328;7.932;2022-11-15T11:59:27;98853.13;;;15.02;100.00
32083;BME280;18597;48.328;7.932;2022-11-15T12:01:57;98851.41;;;15.09;100.00
32083;BME280;18597;48.328;7.932;2022-11-15T12:04:30;98834.84;;;15.20;100.00
32083;BME280;18597;48.328;7.932;2022-11-15T12:07:25;98834.38;;;15.54;100.00
32083;BME280;18597;48.328;7.932;2022-11-15T12:10:11;98834.03;;;15.95;100.00
32083;BME280;18597;48.328;7.932;2022-11-15T12:12:52;98820.81;;;16.29;100.00
32083;BME280;18597;48.328;7.932;2022-11-15T12:15:29;98815.50;;;16.36;100.00
32083;BME280;18597;48.328;7.932;2022-11-15T12:17:58;98798.78;;;16.41;100.00
32083;BME280;18597;48.328;7.932;2022-11-15T12:20:32;98790.13;;;16.30;100.00
32083;BME280;18597;48.328;7.932;2022-11-15T12:23:10;98787.56;;;15.93;100.00
32083;BME280;18597;48.328;7.932;2022-11-15T12:26:00;98771.69;;;15.83;100.00
32083;BME280;18597;48.328;7.932;2022-11-15T12:28:45;98769.38;;;15.95;100.00
32083;BME280;18597;48.328;7.932;2022-11-15T12:31:37;98771.97;;;16.18;100.00
32083;BME280;18597;48.328;7.932;2022-11-15T12:37:02;98760.25;;;16.47;100.00
32083;BME280;18597;48.328;7.932;2022-11-15T12:45:48;98737.81;;;15.89;100.00
32083;BME280;18597;48.328;7.932;2022-11-15T12:50:56;98719.88;;;15.66;100.00
32083;BME280;18597;48.328;7.932;2022-11-15T13:04:24;98706.69;;;16.58;100.00
32083;BME280;18597;48.328;7.932;2022-11-15T13:07:02;98710.69;;;16.62;100.00
32083;BME280;18597;48.328;7.932;2022-11-15T13:15:35;98697.97;;;16.20;100.00
32083;BME280;18597;48.328;7.932;2022-11-15T13:18:33;98700.34;;;15.94;100.00
32083;BME280;18597;48.328;7.932;2022-11-15T13:21:00;98693.22;;;15.71;100.00
32083;BME280;18597;48.328;7.932;2022-11-15T13:23:26;98698.03;;;15.46;100.00
32083;BME280;18597;48.328;7.932;2022-11-15T13:26:15;98689.41;;;15.36;100.00
32083;BME280;18597;48.328;7.932;2022-11-15T13:28:45;98691.88;;;15.23;100.00
32083;BME280;18597;48.328;7.932;2022-11-15T13:31:37;98689.47;;;15.13;100.00
32083;BME280;18597;48.328;7.932;2022-11-15T13:34:31;98693.41;;;15.03;100.00
32083;BME280;18597;48.328;7.932;2022-11-15T13:36:59;98684.13;;;14.90;100.00
32083;BME280;18597;48.328;7.932;2022-11-15T13:39:31;98673.91;;;14.86;100.00
32083;BME280;18597;48.328;7.932;2022-11-15T13:41:58;98675.75;;;14.85;100.00
32083;BME280;18597;48.328;7.932;2022-11-15T13:44:29;98670.56;;;14.84;100.00
32083;BME280;18597;48.328;7.932;2022-11-15T13:47:13;98665.28;;;14.76;100.00
32083;BME280;18597;48.328;7.932;2022-11-15T13:49:40;98668.19;;;14.66;100.00
32083;BME280;18597;48.328;7.932;2022-11-15T13:52:11;98656.19;;;14.77;100.00
32083;BME280;18597;48.328;7.932;2022-11-15T13:55:01;98657.75;;;14.71;100.00
32083;BME280;18597;48.328;7.932;2022-11-15T13:57:44;98642.97;;;14.90;100.00
32083;BME280;18597;48.328;7.932;2022-11-15T14:00:46;98643.56;;;14.77;100.00
32083;BME280;18597;48.328;7.932;2022-11-15T14:03:22;98639.09;;;14.69;100.00
32083;BME280;18597;48.328;7.932;2022-11-15T14:06:14;98640.06;;;14.77;100.00
32083;BME280;18597;48.328;7.932;2022-11-15T14:08:57;98637.25;;;14.70;100.00
32083;BME280;18597;48.328;7.932;2022-11-15T14:11:24;98638.53;;;14.59;100.00
32083;BME280;18597;48.328;7.932;2022-11-15T14:16:49;98621.13;;;14.24;100.00
32083;BME280;18597;48.328;7.932;2022-11-15T14:19:36;98622.72;;;14.10;100.00
32083;BME280;18597;48.328;7.932;2022-11-15T14:22:24;98618.00;;;14.12;100.00
32083;BME280;18597;48.328;7.932;2022-11-15T14:28:06;98598.69;;;13.94;100.00
32083;BME280;18597;48.328;7.932;2022-11-15T14:30:30;98586.97;;;13.87;100.00
32083;BME280;18597;48.328;7.932;2022-11-15T14:32:56;98586.78;;;13.88;100.00
32083;BME280;18597;48.328;7.932;2022-11-15T14:35:23;98573.56;;;13.87;100.00
32083;BME280;18597;48.328;7.932;2022-11-15T14:37:49;98574.03;;;13.91;100.00
32083;BME280;18597;48.328;7.932;2022-11-15T14:40:18;98573.25;;;13.82;100.00
32083;BME280;18597;48.328;7.932;2022-11-15T14:42:46;98566.38;;;13.79;100.00
32083;BME280;18597;48.328;7.932;2022-11-15T14:45:18;98569.91;;;13.80;100.00
32083;BME280;18597;48.328;7.932;2022-11-15T14:47:45;98570.56;;;13.82;100.00
32083;BME280;18597;48.328;7.932;2022-11-15T14:50:14;98570.50;;;13.90;100.00
32083;BME280;18597;48.328;7.932;2022-11-15T14:52:42;98577.13;;;14.02;100.00
32083;BME280;18597;48.328;7.932;2022-11-15T14:55:21;98570.75;;;14.03;100.00
32083;BME280;18597;48.328;7.932;2022-11-15T14:57:49;98566.41;;;14.02;100.00
32083;BME280;18597;48.328;7.932;2022-11-15T15:00:16;98562.50;;;13.82;100.00